Terminal Aerodrome Forecast
Issued by NWS Green Bay, WI

Home | Current Version | Previous Version | Graphics & Text | Print | Product List | Glossary On
Versions: 1 2 3 4 5 6 7 8 9 10 11 12 13 14 15 16 17
000
FTUS43 KGRB 250441 AAC
TAFGRB
TAF AMD
KGRB 250441Z 2505/2524 27009G15KT P6SM SCT050 BKN090
      TEMPO 2505/2509 -SHRA BKN050
     FM251200 29007KT P6SM BKN045
     FM251700 29009KT P6SM BKN050=

USA.gov is the U.S. government's official web portal to all federal, state and local government web resources and services.